createdAt,value
2023-02-27T00:01:10.616Z,-0.94
2023-02-27T00:03:41.034Z,-0.97
2023-02-27T00:06:07.739Z,-0.99
2023-02-27T00:08:34.434Z,-1.03
2023-02-27T00:11:01.198Z,-0.93
2023-02-27T00:13:27.830Z,-0.85
2023-02-27T00:15:56.459Z,-0.85
2023-02-27T00:18:23.658Z,-0.84
2023-02-27T00:21:10.552Z,-0.85
2023-02-27T00:23:37.546Z,-1.00
2023-02-27T00:26:04.332Z,-1.06
2023-02-27T00:28:33.898Z,-1.24
2023-02-27T00:31:13.671Z,-1.30
2023-02-27T00:33:40.435Z,-1.18
2023-02-27T00:36:07.118Z,-1.33
2023-02-27T00:38:42.331Z,-1.40
2023-02-27T00:41:09.022Z,-1.49
2023-02-27T00:43:41.561Z,-1.66
2023-02-27T00:46:12.615Z,-1.80
2023-02-27T00:48:45.841Z,-1.90
2023-02-27T00:51:13.517Z,-1.81
2023-02-27T00:53:40.233Z,-1.85
2023-02-27T00:56:13.377Z,-1.93
2023-02-27T00:58:40.771Z,-2.04
2023-02-27T01:01:08.988Z,-2.06
2023-02-27T01:03:35.647Z,-2.07
2023-02-27T01:06:02.316Z,-2.15
2023-02-27T01:08:31.225Z,-2.21
2023-02-27T01:11:00.928Z,-2.34
2023-02-27T01:13:27.563Z,-2.46
2023-02-27T01:15:59.367Z,-2.55
2023-02-27T01:18:27.866Z,-2.65
2023-02-27T01:21:16.532Z,-2.74
2023-02-27T01:23:43.180Z,-2.81
2023-02-27T01:26:09.966Z,-2.84
2023-02-27T01:28:39.509Z,-2.94
2023-02-27T01:31:14.188Z,-3.02
2023-02-27T01:33:40.933Z,-3.03
2023-02-27T01:36:14.739Z,-3.08
2023-02-27T01:38:41.372Z,-3.16
2023-02-27T01:41:13.906Z,-3.15
2023-02-27T01:44:08.871Z,-3.15
2023-02-27T01:46:42.468Z,-3.23
2023-02-27T01:49:20.990Z,-3.26
2023-02-27T01:52:03.200Z,-3.29
2023-02-27T01:54:32.572Z,-3.33
2023-02-27T01:57:11.356Z,-3.36
2023-02-27T01:59:44.862Z,-3.46
2023-02-27T02:02:26.628Z,-3.48
2023-02-27T02:04:57.707Z,-3.50
2023-02-27T02:07:31.981Z,-3.53
2023-02-27T02:10:00.493Z,-3.59
2023-02-27T02:12:30.594Z,-3.65
2023-02-27T02:14:57.281Z,-3.66
2023-02-27T02:18:09.193Z,-3.69
2023-02-27T02:20:45.016Z,-3.67
2023-02-27T02:23:36.294Z,-3.71
2023-02-27T02:26:22.036Z,-3.70
2023-02-27T02:29:14.484Z,-3.69
2023-02-27T02:32:14.886Z,-3.77
2023-02-27T02:35:08.607Z,-3.84
2023-02-27T02:37:55.118Z,-3.82
2023-02-27T02:40:46.300Z,-3.88
2023-02-27T02:43:36.807Z,-3.86
2023-02-27T02:46:27.494Z,-3.64
2023-02-27T02:49:25.707Z,-3.77
2023-02-27T02:51:57.754Z,-3.80
2023-02-27T02:54:32.835Z,-3.56
2023-02-27T02:57:09.690Z,-3.49
2023-02-27T03:00:13.774Z,-3.49
2023-02-27T03:02:51.587Z,-3.45
2023-02-27T03:05:27.893Z,-3.41
2023-02-27T03:08:04.741Z,-3.34
2023-02-27T03:10:44.528Z,-3.29
2023-02-27T03:13:36.281Z,-3.25
2023-02-27T03:16:12.193Z,-3.24
2023-02-27T03:18:56.540Z,-3.10
2023-02-27T03:21:43.044Z,-2.86
2023-02-27T03:24:14.342Z,-2.90
2023-02-27T03:26:52.865Z,-2.94
2023-02-27T03:29:26.721Z,-2.94
2023-02-27T03:32:19.458Z,-2.97
2023-02-27T03:34:46.274Z,-2.99
2023-02-27T03:37:42.988Z,-3.01
2023-02-27T03:40:28.759Z,-3.01
2023-02-27T03:43:23.772Z,-3.03
2023-02-27T03:45:55.840Z,-3.06
2023-02-27T03:48:25.937Z,-3.04
2023-02-27T03:51:10.644Z,-3.01
2023-02-27T03:54:02.791Z,-2.96
2023-02-27T03:56:39.880Z,-2.95
2023-02-27T03:59:08.612Z,-2.94
2023-02-27T04:01:51.303Z,-2.87
2023-02-27T04:04:19.556Z,-2.84
2023-02-27T04:07:17.249Z,-2.73
2023-02-27T04:10:05.309Z,-2.67
2023-02-27T04:12:47.131Z,-2.59
2023-02-27T04:15:41.520Z,-2.57
2023-02-27T04:18:35.102Z,-2.56
2023-02-27T04:21:14.572Z,-2.56
2023-02-27T04:24:26.388Z,-2.53
2023-02-27T04:27:19.741Z,-2.56
2023-02-27T04:29:55.753Z,-2.60
2023-02-27T04:32:53.373Z,-2.62
2023-02-27T04:35:51.092Z,-2.63
2023-02-27T04:38:27.963Z,-2.64
2023-02-27T04:41:21.917Z,-2.61
2023-02-27T04:43:55.150Z,-2.58
2023-02-27T04:46:31.683Z,-2.58
2023-02-27T04:49:07.129Z,-2.58
2023-02-27T04:51:40.798Z,-2.47
2023-02-27T04:54:14.588Z,-2.40
2023-02-27T04:56:59.390Z,-2.38
2023-02-27T04:59:31.954Z,-2.49
2023-02-27T05:02:25.755Z,-2.63
2023-02-27T05:05:02.042Z,-2.67
2023-02-27T05:07:39.905Z,-2.70
2023-02-27T05:10:14.596Z,-2.74
2023-02-27T05:12:59.632Z,-2.82
2023-02-27T05:15:33.733Z,-2.92
2023-02-27T05:18:07.057Z,-2.97
2023-02-27T05:21:13.047Z,-3.02
2023-02-27T05:23:58.364Z,-3.06
2023-02-27T05:26:46.263Z,-3.10
2023-02-27T05:29:50.987Z,-3.12
2023-02-27T05:32:27.029Z,-3.10
2023-02-27T05:35:29.379Z,-3.04
2023-02-27T05:38:10.708Z,-3.02
2023-02-27T05:40:52.450Z,-2.98
2023-02-27T05:43:25.532Z,-2.94
2023-02-27T05:45:56.681Z,-2.85
2023-02-27T05:48:35.439Z,-2.80
2023-02-27T05:51:05.875Z,-2.69
2023-02-27T05:53:40.105Z,-2.61
2023-02-27T05:56:08.595Z,-2.63
2023-02-27T05:58:35.184Z,-2.54
2023-02-27T06:01:13.565Z,-2.49
2023-02-27T06:03:41.412Z,-2.48
2023-02-27T06:06:17.735Z,-2.47
2023-02-27T06:08:55.511Z,-2.43
2023-02-27T06:11:36.138Z,-2.36
2023-02-27T06:14:09.577Z,-2.31
2023-02-27T06:16:39.685Z,-2.25
2023-02-27T06:19:09.465Z,-2.17
2023-02-27T06:21:36.083Z,-2.17
2023-02-27T06:24:02.737Z,-2.21
2023-02-27T06:26:38.463Z,-2.16
2023-02-27T06:29:14.158Z,-2.10
2023-02-27T06:31:40.793Z,-2.01
2023-02-27T06:34:10.193Z,-1.88
2023-02-27T06:36:36.870Z,-1.57
2023-02-27T06:39:05.026Z,-1.30
2023-02-27T06:41:31.649Z,-1.23
2023-02-27T06:43:58.405Z,-1.19
2023-02-27T06:46:25.607Z,-1.19
2023-02-27T06:48:52.468Z,-1.35
2023-02-27T06:51:22.111Z,-1.20
2023-02-27T06:53:48.820Z,-1.10
2023-02-27T06:56:15.497Z,-1.08
2023-02-27T06:58:45.031Z,-1.08
2023-02-27T07:01:13.490Z,-1.04
2023-02-27T07:03:40.193Z,-0.99
2023-02-27T07:06:06.976Z,-1.02
2023-02-27T07:09:00.877Z,-1.00
2023-02-27T07:11:26.087Z,-0.99
2023-02-27T07:13:55.593Z,-0.97
2023-02-27T07:16:25.559Z,-1.00
2023-02-27T07:18:52.359Z,-1.00
2023-02-27T07:21:21.544Z,-0.96
2023-02-27T07:23:48.203Z,-0.96
2023-02-27T07:26:14.826Z,-0.87
2023-02-27T07:28:41.628Z,-0.83
2023-02-27T07:31:08.390Z,-0.81
2023-02-27T07:33:35.047Z,-0.80
2023-02-27T07:36:01.968Z,-0.78
2023-02-27T07:38:32.993Z,-0.76
2023-02-27T07:40:59.877Z,-0.70
2023-02-27T07:43:29.948Z,-0.67
2023-02-27T07:45:56.715Z,-0.62
2023-02-27T07:48:23.455Z,-0.58
2023-02-27T07:50:50.266Z,-0.51
2023-02-27T07:53:19.415Z,-0.48
2023-02-27T07:55:47.578Z,-0.43
2023-02-27T07:58:14.399Z,-0.45
2023-02-27T08:00:41.235Z,-0.36
2023-02-27T08:03:08.065Z,-0.32
2023-02-27T08:05:35.990Z,-0.22
2023-02-27T08:08:02.981Z,-0.19
2023-02-27T08:10:29.911Z,-0.16
2023-02-27T08:13:02.617Z,-0.23
2023-02-27T08:15:29.339Z,-0.05
2023-02-27T08:17:55.966Z,0.18
2023-02-27T08:20:29.909Z,0.21
2023-02-27T08:22:56.780Z,0.31
2023-02-27T08:25:24.342Z,0.47
2023-02-27T08:27:51.036Z,0.69
2023-02-27T08:30:17.839Z,0.83
2023-02-27T08:32:45.772Z,0.88
2023-02-27T08:35:12.919Z,0.98
2023-02-27T08:37:42.306Z,0.99
2023-02-27T08:40:11.142Z,0.95
2023-02-27T08:42:40.941Z,1.01
2023-02-27T08:45:12.456Z,1.08
2023-02-27T08:47:39.220Z,1.08
2023-02-27T08:50:06.446Z,1.07
2023-02-27T08:52:35.885Z,1.22
2023-02-27T08:55:06.181Z,1.29
2023-02-27T08:57:33.867Z,1.33
2023-02-27T09:00:00.714Z,1.54
2023-02-27T09:02:27.571Z,1.65
2023-02-27T09:04:54.333Z,1.85
2023-02-27T09:07:21.307Z,1.88
2023-02-27T09:09:49.930Z,2.00
2023-02-27T09:12:19.074Z,2.00
2023-02-27T09:14:48.716Z,1.97
2023-02-27T09:17:15.524Z,1.96
2023-02-27T09:19:42.555Z,2.07
2023-02-27T09:22:12.238Z,2.24
2023-02-27T09:24:41.927Z,2.29
2023-02-27T09:27:08.561Z,2.36
2023-02-27T09:29:35.273Z,2.35
2023-02-27T09:32:02.112Z,2.25
2023-02-27T09:34:29.867Z,2.28
2023-02-27T09:37:02.166Z,2.33
2023-02-27T09:39:30.055Z,2.34
2023-02-27T09:42:11.879Z,2.31
2023-02-27T09:44:47.411Z,2.28
2023-02-27T09:47:48.146Z,2.45
2023-02-27T09:50:38.557Z,2.58
2023-02-27T09:53:13.289Z,2.50
2023-02-27T09:55:42.506Z,2.67
2023-02-27T09:58:21.260Z,2.79
2023-02-27T10:01:35.213Z,2.78
2023-02-27T10:04:18.690Z,2.56
2023-02-27T10:06:50.515Z,2.67
2023-02-27T10:09:46.397Z,2.60
2023-02-27T10:12:24.238Z,2.93
2023-02-27T10:15:00.304Z,2.92
2023-02-27T10:17:36.918Z,3.08
2023-02-27T10:20:20.526Z,3.18
2023-02-27T10:22:49.145Z,2.97
2023-02-27T10:25:31.205Z,3.26
2023-02-27T10:28:12.508Z,3.58
2023-02-27T10:30:50.460Z,3.51
2023-02-27T10:33:38.777Z,3.56
2023-02-27T10:36:20.598Z,3.84
2023-02-27T10:39:05.826Z,3.89
2023-02-27T10:41:33.226Z,3.85
2023-02-27T10:44:03.396Z,3.99
2023-02-27T10:46:32.649Z,4.28
2023-02-27T10:49:01.883Z,4.44
2023-02-27T10:51:39.150Z,4.49
2023-02-27T10:54:14.694Z,4.50
2023-02-27T10:56:44.954Z,4.71
2023-02-27T10:59:25.581Z,4.75
2023-02-27T11:02:16.004Z,5.05
2023-02-27T11:04:53.990Z,4.81
2023-02-27T11:07:47.702Z,4.89
2023-02-27T11:10:14.401Z,4.96
2023-02-27T11:12:43.200Z,4.90
2023-02-27T11:15:18.236Z,4.59
2023-02-27T11:17:45.054Z,4.48
2023-02-27T11:20:29.818Z,4.26
2023-02-27T11:23:05.431Z,4.56
2023-02-27T11:25:33.768Z,4.42
2023-02-27T11:28:21.438Z,4.37
2023-02-27T11:31:15.301Z,4.08
2023-02-27T11:33:52.629Z,3.85
2023-02-27T11:36:19.761Z,3.71
2023-02-27T11:38:54.547Z,3.67
2023-02-27T11:41:32.256Z,3.66
2023-02-27T11:44:02.150Z,3.74
2023-02-27T11:46:45.874Z,3.88
2023-02-27T11:49:58.130Z,3.71
2023-02-27T11:52:35.786Z,3.76
2023-02-27T11:55:05.995Z,3.76
2023-02-27T11:57:38.635Z,4.00
2023-02-27T12:00:33.230Z,4.44
2023-02-27T12:03:15.242Z,4.55
2023-02-27T12:05:52.196Z,4.42
2023-02-27T12:08:48.255Z,4.35
2023-02-27T12:11:32.168Z,4.25
2023-02-27T12:14:04.729Z,4.37
2023-02-27T12:16:42.449Z,4.35
2023-02-27T12:19:37.820Z,4.31
2023-02-27T12:22:18.868Z,4.36
2023-02-27T12:25:21.078Z,4.24
2023-02-27T12:28:04.871Z,4.39
2023-02-27T12:30:42.555Z,4.33
2023-02-27T12:33:18.315Z,4.27
2023-02-27T12:35:50.018Z,4.24
2023-02-27T12:38:24.475Z,4.25
2023-02-27T12:41:09.350Z,4.28
2023-02-27T12:43:50.853Z,4.15
2023-02-27T12:46:42.295Z,4.14
2023-02-27T12:49:27.262Z,4.01
2023-02-27T12:52:12.173Z,4.03
2023-02-27T12:55:11.338Z,3.91
2023-02-27T12:58:22.394Z,3.89
2023-02-27T13:01:00.900Z,3.95
2023-02-27T13:03:48.938Z,4.07
2023-02-27T13:06:29.759Z,4.06
2023-02-27T13:09:22.426Z,4.08
2023-02-27T13:12:10.971Z,4.11
2023-02-27T13:14:50.767Z,4.25
2023-02-27T13:17:22.131Z,4.25
2023-02-27T13:19:55.370Z,4.17
2023-02-27T13:22:43.911Z,4.17
2023-02-27T13:25:17.661Z,4.13
2023-02-27T13:27:52.585Z,4.13
2023-02-27T13:30:40.142Z,4.10
2023-02-27T13:33:15.961Z,3.98
2023-02-27T13:36:25.969Z,3.83
2023-02-27T13:38:55.249Z,4.00
2023-02-27T13:41:24.832Z,4.15
2023-02-27T13:44:00.023Z,4.28
2023-02-27T13:46:32.207Z,4.36
2023-02-27T13:49:12.497Z,4.55
2023-02-27T13:51:47.196Z,4.48
2023-02-27T13:54:13.860Z,4.58
2023-02-27T13:56:46.304Z,4.59
2023-02-27T13:59:31.724Z,4.61
2023-02-27T14:02:02.088Z,4.39
2023-02-27T14:04:37.723Z,4.13
2023-02-27T14:07:16.169Z,4.13
2023-02-27T14:09:46.641Z,4.04
2023-02-27T14:12:46.721Z,3.97
2023-02-27T14:15:22.217Z,4.21
2023-02-27T14:18:09.836Z,4.05
2023-02-27T14:20:39.100Z,3.81
2023-02-27T14:23:23.792Z,3.80
2023-02-27T14:25:55.959Z,4.06
2023-02-27T14:28:41.237Z,4.09
2023-02-27T14:31:23.547Z,4.03
2023-02-27T14:33:56.010Z,3.85
2023-02-27T14:36:32.758Z,3.77
2023-02-27T14:39:03.660Z,3.89
2023-02-27T14:41:49.700Z,4.11
2023-02-27T14:44:25.063Z,3.99
2023-02-27T14:46:54.836Z,4.11
2023-02-27T14:49:35.706Z,3.88
2023-02-27T14:52:25.043Z,4.09
2023-02-27T14:54:53.651Z,4.06
2023-02-27T14:57:27.087Z,4.06
2023-02-27T14:59:56.392Z,3.90
2023-02-27T15:02:26.269Z,4.00
2023-02-27T15:05:16.967Z,3.75
2023-02-27T15:07:50.555Z,3.69
2023-02-27T15:10:31.175Z,3.66
2023-02-27T15:13:00.056Z,3.75
2023-02-27T15:15:26.933Z,3.54
2023-02-27T15:17:57.625Z,3.52
2023-02-27T15:20:34.324Z,3.72
2023-02-27T15:23:20.716Z,3.55
2023-02-27T15:25:47.569Z,3.59
2023-02-27T15:28:24.415Z,3.58
2023-02-27T15:30:52.787Z,3.62
2023-02-27T15:33:29.489Z,3.57
2023-02-27T15:35:56.923Z,3.50
2023-02-27T15:38:41.400Z,3.45
2023-02-27T15:41:12.219Z,3.41
2023-02-27T15:43:40.822Z,3.33
2023-02-27T15:46:07.840Z,3.46
2023-02-27T15:48:34.840Z,3.39
2023-02-27T15:51:03.822Z,3.38
2023-02-27T15:53:34.197Z,3.40
2023-02-27T15:56:06.185Z,3.35
2023-02-27T15:58:38.950Z,3.21
2023-02-27T16:01:11.697Z,3.22
2023-02-27T16:03:44.175Z,3.08
2023-02-27T16:06:23.586Z,2.98
2023-02-27T16:09:26.130Z,2.90
2023-02-27T16:12:11.848Z,2.81
2023-02-27T16:14:43.876Z,2.75
2023-02-27T16:17:33.214Z,2.68
2023-02-27T16:20:02.575Z,2.62
2023-02-27T16:22:33.472Z,2.58
2023-02-27T16:25:12.026Z,2.51
2023-02-27T16:27:39.664Z,2.44
2023-02-27T16:30:11.644Z,2.36
2023-02-27T16:32:44.298Z,2.32
2023-02-27T16:35:24.053Z,2.26
2023-02-27T16:37:50.861Z,2.16
2023-02-27T16:40:27.285Z,2.12
2023-02-27T16:42:54.117Z,2.05
2023-02-27T16:45:24.516Z,2.04
2023-02-27T16:47:54.781Z,1.98
2023-02-27T16:50:41.174Z,1.92
2023-02-27T16:53:09.059Z,1.87
2023-02-27T16:55:39.829Z,1.85
2023-02-27T16:58:07.191Z,1.85
2023-02-27T17:00:34.276Z,1.81
2023-02-27T17:03:01.466Z,1.76
2023-02-27T17:05:28.718Z,1.74
2023-02-27T17:07:55.394Z,1.68
2023-02-27T17:10:26.382Z,1.61
2023-02-27T17:12:53.538Z,1.59
2023-02-27T17:15:21.774Z,1.54
2023-02-27T17:17:48.368Z,1.49
2023-02-27T17:20:15.339Z,1.52
2023-02-27T17:22:44.146Z,1.56
2023-02-27T17:25:12.118Z,1.49
2023-02-27T17:27:38.760Z,1.44
2023-02-27T17:30:18.765Z,1.38
2023-02-27T17:32:45.554Z,1.32
2023-02-27T17:35:15.870Z,1.26
2023-02-27T17:37:42.557Z,1.21
2023-02-27T17:40:12.488Z,1.21
2023-02-27T17:42:39.563Z,1.15
2023-02-27T17:45:07.782Z,1.08
2023-02-27T17:47:41.037Z,1.04
2023-02-27T17:50:08.112Z,1.02
2023-02-27T17:52:37.885Z,0.99
2023-02-27T17:55:05.953Z,0.99
2023-02-27T17:57:36.487Z,0.96
2023-02-27T18:00:06.383Z,0.88
2023-02-27T18:02:33.237Z,0.82
2023-02-27T18:05:00.130Z,0.76
2023-02-27T18:07:27.451Z,0.74
2023-02-27T18:09:54.317Z,0.79
2023-02-27T18:12:21.012Z,0.76
2023-02-27T18:14:47.704Z,0.67
2023-02-27T18:17:14.496Z,0.61
2023-02-27T18:19:42.816Z,0.58
2023-02-27T18:22:15.224Z,0.53
2023-02-27T18:24:41.873Z,0.46
2023-02-27T18:27:08.722Z,0.42
2023-02-27T18:29:36.641Z,0.42
2023-02-27T18:32:03.525Z,0.38
2023-02-27T18:34:33.315Z,0.30
2023-02-27T18:37:00.004Z,0.24
2023-02-27T18:39:29.663Z,0.23
2023-02-27T18:41:58.580Z,0.19
2023-02-27T18:44:25.626Z,0.13
2023-02-27T18:46:52.342Z,0.09
2023-02-27T18:49:19.056Z,0.06
2023-02-27T18:51:47.883Z,0.04
2023-02-27T18:54:14.918Z,0.05
2023-02-27T18:56:42.106Z,0.04
2023-02-27T18:59:08.834Z,0.03
2023-02-27T19:01:40.242Z,0.06
2023-02-27T19:04:08.236Z,0.07
2023-02-27T19:06:40.686Z,0.07
2023-02-27T19:09:09.106Z,0.16
2023-02-27T19:11:36.238Z,0.16
2023-02-27T19:14:08.812Z,0.20
2023-02-27T19:16:35.848Z,0.20
2023-02-27T19:19:09.647Z,0.21
2023-02-27T19:21:36.423Z,0.19
2023-02-27T19:24:06.972Z,0.16
2023-02-27T19:26:34.810Z,0.13
2023-02-27T19:29:01.358Z,0.11
2023-02-27T19:31:28.725Z,0.01
2023-02-27T19:33:57.812Z,-0.11
2023-02-27T19:36:26.229Z,-0.17
2023-02-27T19:39:02.045Z,-0.13
2023-02-27T19:41:28.688Z,-0.06
2023-02-27T19:43:55.415Z,-0.14
2023-02-27T19:46:29.824Z,-0.24
2023-02-27T19:48:59.832Z,-0.26
2023-02-27T19:51:26.981Z,-0.22
2023-02-27T19:53:54.299Z,-0.24
2023-02-27T19:56:24.067Z,-0.27
2023-02-27T19:58:51.650Z,-0.22
2023-02-27T20:01:25.399Z,-0.23
2023-02-27T20:03:52.744Z,-0.25
2023-02-27T20:06:23.307Z,-0.17
2023-02-27T20:08:50.792Z,-0.11
2023-02-27T20:11:19.743Z,-0.08
2023-02-27T20:13:47.775Z,-0.12
2023-02-27T20:16:17.387Z,-0.20
2023-02-27T20:18:46.638Z,-0.23
2023-02-27T20:21:16.688Z,-0.23
2023-02-27T20:23:44.927Z,-0.14
2023-02-27T20:26:14.625Z,-0.20
2023-02-27T20:28:41.612Z,-0.20
2023-02-27T20:31:12.858Z,-0.23
2023-02-27T20:33:40.736Z,-0.20
2023-02-27T20:36:10.348Z,-0.27
2023-02-27T20:38:39.190Z,-0.26
2023-02-27T20:41:12.415Z,-0.27
2023-02-27T20:43:39.574Z,-0.32
2023-02-27T20:46:09.196Z,-0.34
2023-02-27T20:48:36.072Z,-0.39
2023-02-27T20:51:16.730Z,-0.48
2023-02-27T20:53:44.447Z,-0.53
2023-02-27T20:58:41.353Z,-0.70
2023-02-27T21:01:10.818Z,-0.77
2023-02-27T21:03:39.836Z,-0.80
2023-02-27T21:06:09.033Z,-0.77
2023-02-27T21:08:40.304Z,-0.78
2023-02-27T21:11:15.425Z,-0.78
2023-02-27T21:13:42.336Z,-0.89
2023-02-27T21:16:11.055Z,-0.88
2023-02-27T21:18:38.446Z,-0.91
2023-02-27T21:21:08.191Z,-0.92
2023-02-27T21:23:41.329Z,-0.96
2023-02-27T21:26:38.769Z,-1.01
2023-02-27T21:29:16.794Z,-1.03
2023-02-27T21:31:45.805Z,-1.05
2023-02-27T21:34:16.022Z,-1.06
2023-02-27T21:36:43.999Z,-1.05
2023-02-27T21:39:16.473Z,-1.05
2023-02-27T21:41:43.706Z,-1.02
2023-02-27T21:44:16.519Z,-1.03
2023-02-27T21:46:44.233Z,-0.99
2023-02-27T21:49:23.562Z,-0.96
2023-02-27T21:51:51.161Z,-0.95
2023-02-27T21:54:19.009Z,-0.95
2023-02-27T21:56:49.413Z,-0.95
2023-02-27T21:59:17.337Z,-0.94
2023-02-27T22:01:47.531Z,-0.89
2023-02-27T22:04:19.606Z,-0.89
2023-02-27T22:06:47.628Z,-0.89
2023-02-27T22:09:14.261Z,-0.87
2023-02-27T22:11:41.284Z,-0.86
2023-02-27T22:14:09.476Z,-0.81
2023-02-27T22:16:36.718Z,-0.81
2023-02-27T22:19:12.808Z,-0.83
2023-02-27T22:21:39.833Z,-0.80
2023-02-27T22:24:07.536Z,-0.81
2023-02-27T22:26:34.965Z,-0.82
2023-02-27T22:29:02.172Z,-0.85
2023-02-27T22:31:34.957Z,-0.84
2023-02-27T22:34:13.194Z,-0.81
2023-02-27T22:36:41.849Z,-0.82
2023-02-27T22:39:08.661Z,-0.78
2023-02-27T22:41:37.812Z,-0.72
2023-02-27T22:44:05.799Z,-0.75
2023-02-27T22:46:40.350Z,-0.72
2023-02-27T22:49:13.832Z,-0.72
2023-02-27T22:51:43.941Z,-0.70
2023-02-27T22:54:20.573Z,-0.69
2023-02-27T22:56:57.825Z,-0.67
2023-02-27T22:59:25.652Z,-0.65
2023-02-27T23:01:52.509Z,-0.64
2023-02-27T23:04:19.359Z,-0.63
2023-02-27T23:06:46.297Z,-0.60
2023-02-27T23:09:18.720Z,-0.48
2023-02-27T23:11:54.736Z,-0.52
2023-02-27T23:14:23.164Z,-0.53
2023-02-27T23:16:50.835Z,-0.41
2023-02-27T23:19:23.133Z,-0.45
2023-02-27T23:21:50.075Z,-0.49
2023-02-27T23:24:18.747Z,-0.53
2023-02-27T23:26:48.007Z,-0.56
2023-02-27T23:29:15.291Z,-0.59
2023-02-27T23:31:42.541Z,-0.52
2023-02-27T23:34:10.094Z,-0.43
2023-02-27T23:36:38.227Z,-0.51
2023-02-27T23:39:06.054Z,-0.54
2023-02-27T23:41:41.824Z,-0.53
2023-02-27T23:44:27.243Z,-0.51
2023-02-27T23:46:53.889Z,-0.43
2023-02-27T23:49:20.666Z,-0.46
2023-02-27T23:51:47.988Z,-0.49
2023-02-27T23:54:14.623Z,-0.48
2023-02-27T23:56:44.380Z,-0.50
2023-02-27T23:59:11.089Z,-0.45
